SBNT weather

Public forecast

Using degrees Celsius for public forecast. Weather courtesy of forecast.io.

Current aviation weather report (METAR) for Augusto Severo Airport

Retrieved 2020/08/13 09:00 UTC (19 seconds ago):

SBNT 130900Z 17004KT 9999 FEW033 22/21 Q1013

Aviation forecast (TAF) for Augusto Severo Airport

Retrieved 2020/08/13 06:33 UTC (2 hours ago):

TAF TAF SBNT 130300Z 1306/1318 16006KT 9999 FEW020 TN21/1309Z TX29/1317Z BECMG 1311/1312 15015KT SCT027 B 1313/1315 14018KT FEW030 RMK PAY